Mount Carmel Municipal (AJG)

 

Airport Diagram
No Airport Diagram Available
Current Weather/Forecast (IFR Conditions)
METAR KAJG 252255Z AUTO 09011KT 10SM OVC007 03/02 A2967 RMK AO2 T00300017
TAF

Airport Information

All Charts
General
Chart Name View
TAKEOFF MINIMUMS
TAKEOFF MINIMUMS

Approaches
Chart Name Download
RNAV (GPS) RWY 04
RNAV (GPS) RWY 22
RNAV (GPS) RWY 31
RNAV (GPS) RWY 04
RNAV (GPS) RWY 22
RNAV (GPS) RWY 31


Airport Statistics
Departures Arrivals Local
All Collected Stats since June 2016: 11 0 0
2021 Stats: 0 0 0
January Stats: 0 0 0

Inbound Traffic (Arrivals) - 0

No inbound traffic.


Outbound Traffic (Departures) - 0

No outbound traffic.


Local Traffic (Pattern) - 0

No local traffic.